createdAt,value
2019-05-25T00:00:30.882Z,98377.07
2019-05-25T00:01:38.887Z,98374.55
2019-05-25T00:02:48.037Z,98373.38
2019-05-25T00:03:56.193Z,98380.89
2019-05-25T00:05:05.377Z,98379.55
2019-05-25T00:06:13.672Z,98376.05
2019-05-25T00:07:22.399Z,98380.05
2019-05-25T00:08:30.708Z,98372.05
2019-05-25T00:09:39.544Z,98370.99
2019-05-25T00:10:47.639Z,98369.63
2019-05-25T00:11:56.565Z,98368.30
2019-05-25T00:13:04.822Z,98372.08
2019-05-25T00:14:13.641Z,98365.91
2019-05-25T00:15:21.622Z,98369.04
2019-05-25T00:16:30.686Z,98369.72
2019-05-25T00:17:39.144Z,98372.83
2019-05-25T00:18:48.048Z,98369.32
2019-05-25T00:19:56.358Z,98375.16
2019-05-25T00:21:05.730Z,98369.48
2019-05-25T00:22:13.798Z,98370.47
2019-05-25T00:23:22.706Z,98370.97
2019-05-25T00:24:30.784Z,98370.97
2019-05-25T00:25:39.878Z,98367.45
2019-05-25T00:26:48.084Z,98367.80
2019-05-25T00:27:57.076Z,98370.28
2019-05-25T00:29:05.152Z,98371.39
2019-05-25T00:30:14.806Z,98369.37
2019-05-25T00:31:22.977Z,98370.72
2019-05-25T00:32:31.941Z,98367.20
2019-05-25T00:33:40.142Z,98363.98
2019-05-25T00:34:49.159Z,98366.15
2019-05-25T00:35:57.465Z,98362.98
2019-05-25T00:37:06.494Z,98360.63
2019-05-25T00:38:14.714Z,98367.30
2019-05-25T00:39:23.882Z,98363.64
2019-05-25T00:40:31.944Z,98365.97
2019-05-25T00:41:40.764Z,98370.77
2019-05-25T00:42:49.004Z,98367.61
2019-05-25T00:43:57.810Z,98362.27
2019-05-25T00:45:07.061Z,98369.78
2019-05-25T00:46:16.105Z,98370.20
2019-05-25T00:47:24.159Z,98362.20
2019-05-25T00:48:33.168Z,98365.37
2019-05-25T00:49:41.375Z,98365.37
2019-05-25T00:50:49.957Z,98371.85
2019-05-25T00:51:58.271Z,98361.52
2019-05-25T00:53:07.060Z,98365.37
2019-05-25T00:54:27.407Z,98363.05
2019-05-25T00:55:26.175Z,98362.02
2019-05-25T00:56:34.698Z,98377.37
2019-05-25T00:57:43.569Z,98375.97
2019-05-25T00:58:51.770Z,98376.34
2019-05-25T01:00:00.596Z,98373.95
2019-05-25T01:01:08.749Z,98378.52
2019-05-25T01:02:17.849Z,98380.19
2019-05-25T01:03:26.083Z,98385.22
2019-05-25T01:04:35.057Z,98380.57
2019-05-25T01:05:43.119Z,98373.44
2019-05-25T01:06:52.049Z,98372.23
2019-05-25T01:08:00.047Z,98374.55
2019-05-25T01:09:09.642Z,98380.88
2019-05-25T01:10:18.723Z,98384.38
2019-05-25T01:11:27.391Z,98382.55
2019-05-25T01:12:35.244Z,98385.06
2019-05-25T01:13:43.950Z,98379.61
2019-05-25T01:14:51.912Z,98384.11
2019-05-25T01:16:02.194Z,98384.72
2019-05-25T01:17:10.321Z,98369.44
2019-05-25T01:18:19.544Z,98383.95
2019-05-25T01:19:27.572Z,98386.21
2019-05-25T01:20:36.496Z,98383.20
2019-05-25T01:21:44.441Z,98382.70
2019-05-25T01:22:53.613Z,98383.89
2019-05-25T01:24:01.482Z,98380.04
2019-05-25T01:25:11.153Z,98384.95
2019-05-25T01:26:19.239Z,98376.14
2019-05-25T01:27:28.659Z,98372.29
2019-05-25T01:28:37.974Z,98371.64
2019-05-25T01:29:47.109Z,98383.95
2019-05-25T01:30:55.279Z,98378.89
2019-05-25T01:32:04.531Z,98380.88
2019-05-25T01:33:12.823Z,98376.87
2019-05-25T01:34:21.849Z,98377.44
2019-05-25T01:35:29.945Z,98373.44
2019-05-25T01:36:38.897Z,98370.95
2019-05-25T01:37:48.640Z,98366.61
2019-05-25T01:38:57.486Z,98372.45
2019-05-25T01:40:07.534Z,98374.40
2019-05-25T01:41:16.675Z,98372.23
2019-05-25T01:42:25.082Z,98382.05
2019-05-25T01:43:34.097Z,98373.87
2019-05-25T01:44:42.089Z,98374.36
2019-05-25T01:45:50.718Z,98377.19
2019-05-25T01:46:59.001Z,98378.30
2019-05-25T01:48:07.889Z,98375.63
2019-05-25T01:49:17.766Z,98378.14
2019-05-25T01:50:26.465Z,98370.30
2019-05-25T01:51:34.762Z,98371.28
2019-05-25T01:52:43.639Z,98370.60
2019-05-25T01:53:51.787Z,98370.75
2019-05-25T01:55:00.648Z,98372.43
2019-05-25T01:56:09.407Z,98374.60
2019-05-25T01:57:18.738Z,98370.95
2019-05-25T01:58:26.939Z,98368.77
2019-05-25T01:59:35.852Z,98367.44
2019-05-25T02:00:44.109Z,98374.11
2019-05-25T02:01:52.825Z,98373.95
2019-05-25T02:03:00.982Z,98375.78
2019-05-25T02:04:10.096Z,98381.42
2019-05-25T02:05:19.057Z,98377.08
2019-05-25T02:06:27.825Z,98378.04
2019-05-25T02:07:35.897Z,98374.19
2019-05-25T02:08:45.024Z,98363.57
2019-05-25T02:09:53.148Z,98370.42
2019-05-25T02:11:01.774Z,98372.34
2019-05-25T02:12:10.138Z,98364.80
2019-05-25T02:13:19.258Z,98368.08
2019-05-25T02:14:27.435Z,98372.45
2019-05-25T02:15:37.614Z,98373.86
2019-05-25T02:16:45.626Z,98372.53
2019-05-25T02:17:54.856Z,98370.28
2019-05-25T02:19:03.259Z,98379.62
2019-05-25T02:20:13.120Z,98371.97
2019-05-25T02:21:21.261Z,98372.11
2019-05-25T02:22:30.320Z,98365.88
2019-05-25T02:23:38.534Z,98371.35
2019-05-25T02:24:47.221Z,98368.77
2019-05-25T02:25:55.338Z,98372.84
2019-05-25T02:27:04.214Z,98373.83
2019-05-25T02:28:12.538Z,98372.49
2019-05-25T02:29:21.532Z,98373.62
2019-05-25T02:30:30.544Z,98373.21
2019-05-25T02:31:39.761Z,98374.09
2019-05-25T02:32:47.702Z,98369.63
2019-05-25T02:33:56.985Z,98372.08
2019-05-25T02:35:07.538Z,98376.41
2019-05-25T02:36:16.357Z,98381.05
2019-05-25T02:37:24.274Z,98381.05
2019-05-25T02:38:33.124Z,98385.55
2019-05-25T02:39:41.466Z,98386.77
2019-05-25T02:40:50.927Z,98389.93
2019-05-25T02:41:59.190Z,98390.08
2019-05-25T02:43:08.352Z,98384.33
2019-05-25T02:44:16.736Z,98390.09
2019-05-25T02:45:25.839Z,98386.45
2019-05-25T02:46:34.356Z,98387.20
2019-05-25T02:47:43.362Z,98387.84
2019-05-25T02:48:51.647Z,98386.10
2019-05-25T02:50:00.581Z,98388.77
2019-05-25T02:51:08.576Z,98389.33
2019-05-25T02:52:17.354Z,98391.42
2019-05-25T02:53:25.361Z,98392.90
2019-05-25T02:54:34.304Z,98395.91
2019-05-25T02:55:42.599Z,98390.38
2019-05-25T02:56:51.738Z,98395.16
2019-05-25T02:57:59.816Z,98391.63
2019-05-25T02:59:09.069Z,98391.56
2019-05-25T03:00:17.716Z,98393.63
2019-05-25T03:01:26.052Z,98396.89
2019-05-25T03:02:34.238Z,98396.05
2019-05-25T03:03:42.942Z,98400.05
2019-05-25T03:04:50.958Z,98404.69
2019-05-25T03:06:01.008Z,98399.55
2019-05-25T03:07:09.342Z,98403.41
2019-05-25T03:08:18.103Z,98399.41
2019-05-25T03:09:30.418Z,98402.86
2019-05-25T03:10:39.687Z,98402.38
2019-05-25T03:11:49.593Z,98403.20
2019-05-25T03:13:00.294Z,98403.20
2019-05-25T03:14:08.529Z,98409.03
2019-05-25T03:15:17.994Z,98406.77
2019-05-25T03:16:26.291Z,98409.17
2019-05-25T03:17:35.104Z,98415.34
2019-05-25T03:18:43.358Z,98408.83
2019-05-25T03:19:52.505Z,98408.48
2019-05-25T03:21:00.799Z,98413.31
2019-05-25T03:22:09.930Z,98413.31
2019-05-25T03:23:17.837Z,98406.86
2019-05-25T03:24:26.757Z,98402.02
2019-05-25T03:25:48.479Z,98409.03
2019-05-25T03:26:45.575Z,98404.89
2019-05-25T03:27:53.826Z,98409.86
2019-05-25T03:29:02.790Z,98411.00
2019-05-25T03:30:11.781Z,98409.81
2019-05-25T03:31:20.674Z,98413.09
2019-05-25T03:32:28.943Z,98411.98
2019-05-25T03:33:37.728Z,98411.41
2019-05-25T03:34:45.995Z,98412.39
2019-05-25T03:35:54.792Z,98412.48
2019-05-25T03:37:03.045Z,98413.81
2019-05-25T03:38:11.401Z,98416.39
2019-05-25T03:39:19.690Z,98413.09
2019-05-25T03:40:28.627Z,98413.81
2019-05-25T03:41:37.104Z,98412.73
2019-05-25T03:42:46.097Z,98419.20
2019-05-25T03:43:54.315Z,98410.22
2019-05-25T03:45:03.226Z,98411.20
2019-05-25T03:46:11.259Z,98416.88
2019-05-25T03:47:20.410Z,98415.41
2019-05-25T03:48:28.442Z,98415.98
2019-05-25T03:49:37.178Z,98415.14
2019-05-25T03:50:46.170Z,98416.81
2019-05-25T03:51:55.025Z,98417.42
2019-05-25T03:53:03.085Z,98422.98
2019-05-25T03:54:12.100Z,98416.67
2019-05-25T03:55:20.330Z,98418.69
2019-05-25T03:56:29.841Z,98418.84
2019-05-25T03:57:37.957Z,98423.67
2019-05-25T03:58:46.739Z,98418.50
2019-05-25T03:59:54.841Z,98424.02
2019-05-25T04:01:03.940Z,98424.52
2019-05-25T04:02:12.254Z,98421.22
2019-05-25T04:03:21.119Z,98424.88
2019-05-25T04:04:29.373Z,98426.70
2019-05-25T04:05:38.184Z,98415.76
2019-05-25T04:06:46.396Z,98428.92
2019-05-25T04:07:55.410Z,98428.17
2019-05-25T04:09:03.433Z,98431.09
2019-05-25T04:10:13.955Z,98427.19
2019-05-25T04:11:22.676Z,98423.54
2019-05-25T04:12:31.625Z,98431.39
2019-05-25T04:13:39.976Z,98421.34
2019-05-25T04:14:49.000Z,98416.66
2019-05-25T04:15:58.911Z,98428.09
2019-05-25T04:17:07.716Z,98423.11
2019-05-25T04:18:15.999Z,98425.77
2019-05-25T04:19:24.986Z,98425.28
2019-05-25T04:20:33.099Z,98429.13
2019-05-25T04:21:42.087Z,98426.95
2019-05-25T04:22:50.284Z,98432.77
2019-05-25T04:23:58.970Z,98432.38
2019-05-25T04:25:07.747Z,98430.11
2019-05-25T04:26:22.375Z,98429.36
2019-05-25T04:27:26.505Z,98431.19
2019-05-25T04:28:35.229Z,98427.73
2019-05-25T04:29:43.444Z,98425.70
2019-05-25T04:30:52.018Z,98433.61
2019-05-25T04:32:00.173Z,98432.92
2019-05-25T04:33:08.977Z,98431.94
2019-05-25T04:34:17.091Z,98430.39
2019-05-25T04:35:25.919Z,98434.05
2019-05-25T04:36:33.933Z,98439.23
2019-05-25T04:37:42.863Z,98436.02
2019-05-25T04:38:50.915Z,98435.67
2019-05-25T04:39:59.736Z,98437.78
2019-05-25T04:41:08.120Z,98440.70
2019-05-25T04:42:16.834Z,98436.80
2019-05-25T04:43:24.742Z,98441.28
2019-05-25T04:44:34.051Z,98441.89
2019-05-25T04:45:42.115Z,98436.56
2019-05-25T04:46:51.095Z,98446.37
2019-05-25T04:47:59.061Z,98444.44
2019-05-25T04:49:07.605Z,98442.81
2019-05-25T04:50:16.255Z,98448.42
2019-05-25T04:51:25.329Z,98441.91
2019-05-25T04:52:33.941Z,98441.48
2019-05-25T04:53:43.124Z,98446.31
2019-05-25T04:54:51.343Z,98445.67
2019-05-25T04:56:00.461Z,98450.16
2019-05-25T04:57:08.757Z,98450.16
2019-05-25T04:58:18.276Z,98449.41
2019-05-25T04:59:26.397Z,98452.97
2019-05-25T05:00:35.547Z,98454.81
2019-05-25T05:01:44.034Z,98455.93
2019-05-25T05:02:53.307Z,98455.37
2019-05-25T05:04:01.950Z,98456.36
2019-05-25T05:05:11.082Z,98461.69
2019-05-25T05:06:19.030Z,98463.66
2019-05-25T05:07:27.539Z,98469.97
2019-05-25T05:08:35.964Z,98468.30
2019-05-25T05:09:44.832Z,98470.01
2019-05-25T05:10:52.915Z,98466.50
2019-05-25T05:12:01.913Z,98469.66
2019-05-25T05:13:10.147Z,98473.74
2019-05-25T05:14:19.419Z,98470.50
2019-05-25T05:15:27.652Z,98470.30
2019-05-25T05:16:37.152Z,98468.97
2019-05-25T05:17:45.822Z,98475.63
2019-05-25T05:18:55.096Z,98470.58
2019-05-25T05:20:03.628Z,98476.34
2019-05-25T05:21:13.055Z,98473.41
2019-05-25T05:22:21.355Z,98475.73
2019-05-25T05:23:30.675Z,98471.78
2019-05-25T05:24:38.889Z,98475.52
2019-05-25T05:25:48.464Z,98473.59
2019-05-25T05:26:56.905Z,98471.00
2019-05-25T05:28:06.171Z,98476.83
2019-05-25T05:29:14.535Z,98471.65
2019-05-25T05:30:35.663Z,98468.48
2019-05-25T05:31:43.938Z,98472.88
2019-05-25T05:32:53.211Z,98476.04
2019-05-25T05:34:02.230Z,98477.45
2019-05-25T05:35:12.043Z,98469.98
2019-05-25T05:36:21.944Z,98474.06
2019-05-25T05:37:32.923Z,98469.50
2019-05-25T05:38:41.934Z,98476.39
2019-05-25T05:39:51.781Z,98475.40
2019-05-25T05:41:01.719Z,98469.92
2019-05-25T05:42:15.058Z,98471.09
2019-05-25T05:43:25.406Z,98468.73
2019-05-25T05:44:38.113Z,98475.97
2019-05-25T05:45:49.309Z,98474.34
2019-05-25T05:47:00.849Z,98475.67
2019-05-25T05:48:12.790Z,98477.99
2019-05-25T05:49:22.011Z,98478.98
2019-05-25T05:50:32.615Z,98482.41
2019-05-25T05:51:44.642Z,98475.86
2019-05-25T05:52:56.063Z,98479.75
2019-05-25T05:54:06.922Z,98482.11
2019-05-25T05:55:18.570Z,98476.82
2019-05-25T05:56:27.614Z,98475.22
2019-05-25T05:57:36.284Z,98472.73
2019-05-25T05:58:45.183Z,98478.80
2019-05-25T05:59:53.331Z,98479.14
2019-05-25T06:01:02.576Z,98482.00
2019-05-25T06:02:11.113Z,98476.32
2019-05-25T06:03:20.133Z,98481.01
2019-05-25T06:04:28.639Z,98480.81
2019-05-25T06:05:37.601Z,98480.09
2019-05-25T06:06:46.212Z,98477.00
2019-05-25T06:07:55.586Z,98474.70
2019-05-25T06:09:05.261Z,98474.55
2019-05-25T06:10:15.268Z,98472.27
2019-05-25T06:11:23.572Z,98473.48
2019-05-25T06:12:33.066Z,98470.72
2019-05-25T06:13:41.243Z,98466.45
2019-05-25T06:14:50.397Z,98471.17
2019-05-25T06:15:58.511Z,98469.64
2019-05-25T06:17:07.114Z,98477.31
2019-05-25T06:18:15.619Z,98473.12
2019-05-25T06:19:24.979Z,98471.56
2019-05-25T06:20:33.347Z,98469.15
2019-05-25T06:21:42.847Z,98471.66
2019-05-25T06:22:51.373Z,98478.48
2019-05-25T06:24:00.424Z,98469.74
2019-05-25T06:25:12.198Z,98474.49
2019-05-25T06:26:20.891Z,98468.78
2019-05-25T06:27:29.220Z,98466.33
2019-05-25T06:28:45.136Z,98474.81
2019-05-25T06:29:53.161Z,98468.25
2019-05-25T06:31:02.204Z,98475.02
2019-05-25T06:32:10.323Z,98473.71
2019-05-25T06:33:19.472Z,98470.55
2019-05-25T06:34:27.907Z,98471.38
2019-05-25T06:35:36.615Z,98471.09
2019-05-25T06:36:45.009Z,98475.37
2019-05-25T06:37:54.313Z,98471.09
2019-05-25T06:39:02.841Z,98472.98
2019-05-25T06:40:12.866Z,98469.05
2019-05-25T06:41:20.791Z,98468.11
2019-05-25T06:42:29.643Z,98462.39
2019-05-25T06:43:37.809Z,98467.27
2019-05-25T06:44:46.778Z,98463.11
2019-05-25T06:45:55.539Z,98465.28
2019-05-25T06:47:04.932Z,98468.97
2019-05-25T06:48:13.492Z,98462.23
2019-05-25T06:49:21.913Z,98463.79
2019-05-25T06:50:30.956Z,98467.99
2019-05-25T06:51:39.682Z,98463.36
2019-05-25T06:52:48.424Z,98466.05
2019-05-25T06:53:57.618Z,98463.42
2019-05-25T06:55:08.442Z,98466.82
2019-05-25T06:56:17.146Z,98463.35
2019-05-25T06:57:25.362Z,98467.61
2019-05-25T06:58:34.535Z,98473.64
2019-05-25T06:59:42.491Z,98469.79
2019-05-25T07:00:51.481Z,98470.17
2019-05-25T07:01:59.620Z,98475.06
2019-05-25T07:03:08.364Z,98477.08
2019-05-25T07:04:16.636Z,98472.94
2019-05-25T07:05:25.855Z,98470.09
2019-05-25T07:06:34.102Z,98471.81
2019-05-25T07:07:42.810Z,98476.66
2019-05-25T07:08:51.316Z,98473.16
2019-05-25T07:10:00.013Z,98474.87
2019-05-25T07:11:08.296Z,98477.41
2019-05-25T07:12:17.105Z,98473.23
2019-05-25T07:13:28.358Z,98475.58
2019-05-25T07:14:35.875Z,98475.61
2019-05-25T07:15:44.191Z,98480.84
2019-05-25T07:16:53.167Z,98468.63
2019-05-25T07:18:01.614Z,98476.69
2019-05-25T07:19:10.387Z,98480.03
2019-05-25T07:20:19.545Z,98478.53
2019-05-25T07:21:28.864Z,98477.02
2019-05-25T07:22:37.178Z,98481.91
2019-05-25T07:23:46.652Z,98480.40
2019-05-25T07:24:55.030Z,98478.39
2019-05-25T07:26:04.217Z,98475.74
2019-05-25T07:27:13.287Z,98474.40
2019-05-25T07:28:22.493Z,98480.79
2019-05-25T07:29:30.853Z,98480.31
2019-05-25T07:30:40.409Z,98479.72
2019-05-25T07:31:48.599Z,98483.57
2019-05-25T07:32:57.679Z,98485.05
2019-05-25T07:34:05.987Z,98477.83
2019-05-25T07:35:15.077Z,98480.53
2019-05-25T07:36:23.441Z,98477.72
2019-05-25T07:37:32.464Z,98488.09
2019-05-25T07:38:40.692Z,98480.39
2019-05-25T07:39:49.098Z,98484.59
2019-05-25T07:40:57.139Z,98479.95
2019-05-25T07:42:06.126Z,98474.07
2019-05-25T07:43:14.165Z,98478.62
2019-05-25T07:44:22.973Z,98484.49
2019-05-25T07:45:31.080Z,98477.47
2019-05-25T07:46:39.797Z,98477.27
2019-05-25T07:47:47.777Z,98481.47
2019-05-25T07:48:56.907Z,98477.95
2019-05-25T07:50:09.975Z,98483.47
2019-05-25T07:51:19.729Z,98483.66
2019-05-25T07:52:27.846Z,98486.14
2019-05-25T07:53:38.825Z,98481.97
2019-05-25T07:54:47.439Z,98483.84
2019-05-25T07:55:56.391Z,98488.19
2019-05-25T07:57:04.719Z,98472.94
2019-05-25T07:58:17.644Z,98481.81
2019-05-25T07:59:23.112Z,98480.30
2019-05-25T08:00:32.122Z,98480.13
2019-05-25T08:01:40.015Z,98479.31
2019-05-25T08:02:49.268Z,98483.66
2019-05-25T08:03:58.047Z,98483.00
2019-05-25T08:05:10.143Z,98483.02
2019-05-25T08:06:19.269Z,98482.33
2019-05-25T08:07:32.661Z,98488.52
2019-05-25T08:08:43.355Z,98481.97
2019-05-25T08:09:53.957Z,98483.70
2019-05-25T08:11:04.354Z,98478.13
2019-05-25T08:12:13.783Z,98475.78
2019-05-25T08:13:22.158Z,98484.86
2019-05-25T08:14:30.996Z,98479.78
2019-05-25T08:15:39.422Z,98475.77
2019-05-25T08:16:48.237Z,98472.41
2019-05-25T08:17:56.472Z,98474.05
2019-05-25T08:19:05.491Z,98473.84
2019-05-25T08:20:14.094Z,98475.84
2019-05-25T08:21:22.873Z,98472.46
2019-05-25T08:22:30.825Z,98474.49
2019-05-25T08:23:40.079Z,98477.14
2019-05-25T08:24:48.249Z,98470.91
2019-05-25T08:25:57.797Z,98473.44
2019-05-25T08:27:06.339Z,98468.39
2019-05-25T08:28:29.842Z,98473.69
2019-05-25T08:29:26.486Z,98467.15
2019-05-25T08:30:35.459Z,98470.47
2019-05-25T08:31:43.845Z,98467.78
2019-05-25T08:32:52.920Z,98475.35
2019-05-25T08:34:01.115Z,98470.00
2019-05-25T08:35:10.271Z,98472.33
2019-05-25T08:36:18.341Z,98475.66
2019-05-25T08:37:27.174Z,98468.28
2019-05-25T08:38:35.462Z,98469.27
2019-05-25T08:39:44.605Z,98473.44
2019-05-25T08:40:52.915Z,98467.59
2019-05-25T08:42:02.849Z,98471.44
2019-05-25T08:43:11.161Z,98469.72
2019-05-25T08:44:20.373Z,98471.52
2019-05-25T08:45:28.591Z,98473.46
2019-05-25T08:46:37.878Z,98467.42
2019-05-25T08:47:46.252Z,98470.95
2019-05-25T08:48:55.528Z,98469.55
2019-05-25T08:50:04.276Z,98470.74
2019-05-25T08:51:13.613Z,98474.61
2019-05-25T08:52:22.640Z,98474.09
2019-05-25T08:53:41.546Z,98469.98
2019-05-25T08:54:42.002Z,98471.76
2019-05-25T08:55:50.863Z,98476.19
2019-05-25T08:56:59.153Z,98469.40
2019-05-25T08:58:07.989Z,98471.82
2019-05-25T08:59:16.123Z,98475.00
2019-05-25T09:00:25.166Z,98476.42
2019-05-25T09:01:33.219Z,98482.69
2019-05-25T09:02:42.304Z,98472.59
2019-05-25T09:03:50.362Z,98481.97
2019-05-25T09:04:59.510Z,98482.13
2019-05-25T09:06:07.470Z,98477.46
2019-05-25T09:07:16.428Z,98473.94
2019-05-25T09:08:24.620Z,98477.81
2019-05-25T09:09:33.433Z,98482.78
2019-05-25T09:10:41.569Z,98477.30
2019-05-25T09:11:51.203Z,98482.66
2019-05-25T09:12:59.483Z,98477.28
2019-05-25T09:14:08.733Z,98475.35
2019-05-25T09:15:17.214Z,98476.48
2019-05-25T09:16:26.225Z,98473.42
2019-05-25T09:17:34.417Z,98474.27
2019-05-25T09:18:42.754Z,98471.69
2019-05-25T09:19:50.939Z,98478.31
2019-05-25T09:21:00.233Z,98471.44
2019-05-25T09:22:08.655Z,98480.11
2019-05-25T09:23:17.900Z,98474.63
2019-05-25T09:24:26.056Z,98476.34
2019-05-25T09:25:35.298Z,98466.84
2019-05-25T09:26:44.359Z,98469.80
2019-05-25T09:27:53.203Z,98471.84
2019-05-25T09:29:04.611Z,98472.97
2019-05-25T09:30:12.606Z,98473.83
2019-05-25T09:31:20.901Z,98469.44
2019-05-25T09:32:30.996Z,98477.89
2019-05-25T09:33:39.159Z,98475.04
2019-05-25T09:34:48.558Z,98475.39
2019-05-25T09:35:56.727Z,98477.44
2019-05-25T09:37:05.675Z,98476.41
2019-05-25T09:38:14.212Z,98478.03
2019-05-25T09:39:23.299Z,98477.28
2019-05-25T09:40:33.423Z,98477.77
2019-05-25T09:41:42.782Z,98473.60
2019-05-25T09:42:51.630Z,98477.97
2019-05-25T09:44:01.482Z,98478.88
2019-05-25T09:45:13.899Z,98482.02
2019-05-25T09:46:21.235Z,98480.02
2019-05-25T09:47:29.896Z,98483.56
2019-05-25T09:48:38.844Z,98479.30
2019-05-25T09:49:47.360Z,98479.51
2019-05-25T09:50:56.453Z,98481.92
2019-05-25T09:52:04.844Z,98483.77
2019-05-25T09:53:14.077Z,98484.91
2019-05-25T09:54:23.330Z,98482.81
2019-05-25T09:55:34.634Z,98481.75
2019-05-25T09:56:43.119Z,98488.33
2019-05-25T09:57:52.433Z,98482.37
2019-05-25T09:59:00.854Z,98479.38
2019-05-25T10:00:13.108Z,98482.63
2019-05-25T10:01:23.227Z,98475.56
2019-05-25T10:02:32.607Z,98480.55
2019-05-25T10:03:41.222Z,98479.52
2019-05-25T10:04:50.076Z,98480.34
2019-05-25T10:05:58.549Z,98480.76
2019-05-25T10:07:08.184Z,98482.40
2019-05-25T10:08:16.203Z,98487.98
2019-05-25T10:09:25.659Z,98486.90
2019-05-25T10:10:34.517Z,98488.65
2019-05-25T10:11:44.538Z,98482.55
2019-05-25T10:12:55.343Z,98479.41
2019-05-25T10:14:04.235Z,98481.32
2019-05-25T10:15:12.857Z,98476.78
2019-05-25T10:16:21.924Z,98479.03
2019-05-25T10:17:30.353Z,98478.59
2019-05-25T10:18:39.929Z,98479.71
2019-05-25T10:19:48.664Z,98483.39
2019-05-25T10:20:57.629Z,98479.52
2019-05-25T10:22:06.497Z,98478.38
2019-05-25T10:23:15.870Z,98477.73
2019-05-25T10:24:24.499Z,98480.47
2019-05-25T10:25:33.560Z,98475.16
2019-05-25T10:26:42.201Z,98475.75
2019-05-25T10:27:51.325Z,98478.20
2019-05-25T10:28:59.860Z,98469.50
2019-05-25T10:30:11.283Z,98473.56
2019-05-25T10:31:20.019Z,98470.27
2019-05-25T10:32:29.312Z,98467.98
2019-05-25T10:33:38.767Z,98471.38
2019-05-25T10:34:48.301Z,98473.23
2019-05-25T10:36:32.636Z,98470.03
2019-05-25T10:37:42.090Z,98461.77
2019-05-25T10:38:50.722Z,98453.80
2019-05-25T10:39:59.910Z,98456.39
2019-05-25T10:41:07.972Z,98472.19
2019-05-25T10:42:17.136Z,98475.05
2019-05-25T10:43:25.080Z,98469.97
2019-05-25T10:44:34.553Z,98472.81
2019-05-25T10:45:43.169Z,98463.16
2019-05-25T10:46:52.043Z,98465.27
2019-05-25T10:48:00.177Z,98464.76
2019-05-25T10:49:11.686Z,98469.14
2019-05-25T10:50:19.632Z,98464.31
2019-05-25T10:51:28.664Z,98468.89
2019-05-25T10:52:37.253Z,98466.00
2019-05-25T10:53:46.193Z,98475.56
2019-05-25T10:54:54.371Z,98469.65
2019-05-25T10:56:02.885Z,98468.63
2019-05-25T10:57:13.240Z,98463.52
2019-05-25T10:58:21.557Z,98454.09
2019-05-25T10:59:29.994Z,98454.65
2019-05-25T11:00:38.948Z,98461.48
2019-05-25T11:01:47.031Z,98457.73
2019-05-25T11:02:56.686Z,98460.03
2019-05-25T11:04:05.662Z,98467.72
2019-05-25T11:05:16.430Z,98462.75
2019-05-25T11:06:24.594Z,98454.38
2019-05-25T11:07:33.582Z,98460.33
2019-05-25T11:08:42.296Z,98448.49
2019-05-25T11:09:52.300Z,98451.76
2019-05-25T11:11:00.539Z,98442.95
2019-05-25T11:12:09.719Z,98452.80
2019-05-25T11:13:18.451Z,98454.41
2019-05-25T11:14:27.535Z,98454.20
2019-05-25T11:15:36.015Z,98451.28
2019-05-25T11:16:45.216Z,98456.41
2019-05-25T11:17:53.532Z,98452.61
2019-05-25T11:19:02.359Z,98454.24
2019-05-25T11:20:12.236Z,98453.66
2019-05-25T11:21:21.146Z,98445.07
2019-05-25T11:22:29.342Z,98447.49
2019-05-25T11:23:39.070Z,98444.66
2019-05-25T11:24:47.243Z,98446.63
2019-05-25T11:25:56.814Z,98445.32
2019-05-25T11:27:04.937Z,98434.86
2019-05-25T11:28:13.872Z,98439.67
2019-05-25T11:29:22.236Z,98433.17
2019-05-25T11:30:31.190Z,98432.20
2019-05-25T11:31:39.424Z,98441.30
2019-05-25T11:32:48.328Z,98438.74
2019-05-25T11:33:56.749Z,98434.61
2019-05-25T11:35:07.514Z,98428.97
2019-05-25T11:36:15.355Z,98434.67
2019-05-25T11:37:24.771Z,98435.71
2019-05-25T11:38:32.963Z,98432.67
2019-05-25T11:39:42.106Z,98429.50
2019-05-25T11:40:50.527Z,98435.41
2019-05-25T11:41:59.804Z,98427.91
2019-05-25T11:43:07.970Z,98431.01
2019-05-25T11:44:17.082Z,98433.24
2019-05-25T11:45:25.363Z,98437.52
2019-05-25T11:46:34.247Z,98434.11
2019-05-25T11:47:42.282Z,98432.06
2019-05-25T11:48:51.402Z,98433.84
2019-05-25T11:49:59.735Z,98430.93
2019-05-25T11:51:08.411Z,98435.84
2019-05-25T11:52:16.540Z,98439.94
2019-05-25T11:53:25.521Z,98435.27
2019-05-25T11:54:33.721Z,98430.72
2019-05-25T11:55:42.753Z,98432.27
2019-05-25T11:56:50.803Z,98433.91
2019-05-25T11:57:59.818Z,98429.13
2019-05-25T11:59:07.925Z,98435.77
2019-05-25T12:00:25.565Z,98432.77
2019-05-25T12:01:31.110Z,98432.80
2019-05-25T12:02:40.348Z,98431.89
2019-05-25T12:03:48.548Z,98432.87
2019-05-25T12:04:57.553Z,98427.73
2019-05-25T12:06:05.629Z,98425.13
2019-05-25T12:07:14.591Z,98424.92
2019-05-25T12:08:22.974Z,98421.35
2019-05-25T12:09:31.709Z,98417.34
2019-05-25T12:10:42.404Z,98418.70
2019-05-25T12:11:51.736Z,98427.39
2019-05-25T12:13:00.576Z,98430.80
2019-05-25T12:14:09.765Z,98430.81
2019-05-25T12:15:19.440Z,98421.86
2019-05-25T12:16:28.029Z,98425.17
2019-05-25T12:17:36.158Z,98418.17
2019-05-25T12:18:44.927Z,98419.89
2019-05-25T12:19:53.059Z,98422.67
2019-05-25T12:21:02.645Z,98427.70
2019-05-25T12:22:10.692Z,98418.84
2019-05-25T12:23:19.068Z,98416.33
2019-05-25T12:24:27.100Z,98419.29
2019-05-25T12:25:36.189Z,98427.94
2019-05-25T12:26:44.410Z,98427.23
2019-05-25T12:27:54.049Z,98422.01
2019-05-25T12:29:02.120Z,98424.41
2019-05-25T12:30:11.247Z,98418.30
2019-05-25T12:31:19.507Z,98425.58
2019-05-25T12:32:28.714Z,98422.70
2019-05-25T12:33:36.950Z,98421.69
2019-05-25T12:34:46.385Z,98426.96
2019-05-25T12:35:55.010Z,98420.92
2019-05-25T12:37:04.005Z,98420.77
2019-05-25T12:38:12.175Z,98423.06
2019-05-25T12:39:21.982Z,98419.15
2019-05-25T12:40:30.278Z,98419.73
2019-05-25T12:41:39.537Z,98421.86
2019-05-25T12:42:47.698Z,98420.75
2019-05-25T12:43:56.443Z,98417.92
2019-05-25T12:45:05.466Z,98417.44
2019-05-25T12:46:14.254Z,98410.48
2019-05-25T12:47:22.527Z,98423.05
2019-05-25T12:48:31.438Z,98411.59
2019-05-25T12:49:50.284Z,98416.22
2019-05-25T12:50:50.840Z,98407.24
2019-05-25T12:51:59.182Z,98417.54
2019-05-25T12:53:08.275Z,98416.27
2019-05-25T12:54:16.649Z,98408.06
2019-05-25T12:55:25.582Z,98401.61
2019-05-25T12:56:33.909Z,98413.12
2019-05-25T12:57:42.600Z,98410.56
2019-05-25T12:58:50.661Z,98401.65
2019-05-25T13:00:14.288Z,98406.18
2019-05-25T13:01:09.723Z,98410.07
2019-05-25T13:02:18.043Z,98401.96
2019-05-25T13:03:28.360Z,98400.80
2019-05-25T13:04:36.951Z,98400.09
2019-05-25T13:05:45.288Z,98394.36
2019-05-25T13:06:54.101Z,98390.61
2019-05-25T13:08:02.290Z,98392.71
2019-05-25T13:09:12.242Z,98398.02
2019-05-25T13:10:20.559Z,98389.64
2019-05-25T13:11:29.767Z,98382.54
2019-05-25T13:12:37.937Z,98387.70
2019-05-25T13:13:46.946Z,98384.34
2019-05-25T13:14:55.657Z,98385.56
2019-05-25T13:16:05.485Z,98392.91
2019-05-25T13:17:14.147Z,98389.44
2019-05-25T13:18:23.317Z,98388.55
2019-05-25T13:19:31.637Z,98390.63
2019-05-25T13:20:40.799Z,98386.08
2019-05-25T13:21:49.252Z,98387.36
2019-05-25T13:22:58.421Z,98384.91
2019-05-25T13:24:06.940Z,98383.34
2019-05-25T13:25:16.059Z,98384.87
2019-05-25T13:26:24.379Z,98381.56
2019-05-25T13:27:33.912Z,98380.23
2019-05-25T13:28:41.924Z,98377.91
2019-05-25T13:29:51.095Z,98377.52